createdAt,value
2018-05-25T00:02:47.667Z,3.07
2018-05-25T00:07:49.022Z,2.70
2018-05-25T00:12:51.059Z,2.53
2018-05-25T00:17:52.365Z,3.17
2018-05-25T00:22:54.415Z,2.93
2018-05-25T00:27:55.711Z,4.50
2018-05-25T00:32:57.026Z,3.30
2018-05-25T00:37:58.359Z,3.47
2018-05-25T00:42:59.715Z,3.80
2018-05-25T00:48:01.031Z,3.77
2018-05-25T00:53:02.355Z,3.63
2018-05-25T00:58:03.660Z,3.27
2018-05-25T01:03:05.879Z,3.50
2018-05-25T01:08:07.163Z,3.00
2018-05-25T01:13:08.466Z,2.90
2018-05-25T01:18:09.755Z,3.87
2018-05-25T01:23:11.043Z,3.57
2018-05-25T01:28:13.123Z,3.90
2018-05-25T01:33:14.434Z,3.90
2018-05-25T01:38:15.738Z,3.63
2018-05-25T01:43:17.036Z,4.40
2018-05-25T01:48:18.369Z,4.27
2018-05-25T01:53:20.410Z,3.93
2018-05-25T01:58:21.700Z,3.97
2018-05-25T02:03:24.482Z,3.70
2018-05-25T02:08:25.782Z,4.00
2018-05-25T02:13:27.815Z,4.40
2018-05-25T02:18:29.107Z,3.70
2018-05-25T02:23:30.392Z,5.27
2018-05-25T02:28:31.682Z,4.07
2018-05-25T02:33:32.983Z,3.83
2018-05-25T02:38:34.305Z,3.77
2018-05-25T02:43:36.327Z,4.20
2018-05-25T02:48:37.620Z,4.90
2018-05-25T02:53:38.919Z,4.60
2018-05-25T02:58:40.210Z,5.57
2018-05-25T03:03:41.518Z,5.10
2018-05-25T03:08:43.576Z,4.93
2018-05-25T03:13:44.872Z,6.03
2018-05-25T03:18:46.158Z,5.93
2018-05-25T03:23:47.464Z,7.30
2018-05-25T03:28:48.760Z,7.70
2018-05-25T03:33:50.787Z,5.23
2018-05-25T03:38:52.096Z,5.10
2018-05-25T03:43:53.395Z,5.87
2018-05-25T03:48:54.691Z,5.93
2018-05-25T03:53:56.011Z,3.80
2018-05-25T03:59:10.543Z,3.97
2018-05-25T04:04:11.881Z,4.40
2018-05-25T04:09:13.187Z,4.67
2018-05-25T04:14:14.521Z,4.60
2018-05-25T04:19:15.835Z,4.60
2018-05-25T04:24:17.891Z,4.73
2018-05-25T04:29:19.179Z,4.30
2018-05-25T04:34:21.214Z,4.60
2018-05-25T04:39:22.502Z,4.53
2018-05-25T04:44:23.799Z,4.03
2018-05-25T04:49:25.095Z,4.17
2018-05-25T04:54:26.383Z,4.47
2018-05-25T04:59:27.702Z,4.23
2018-05-25T05:04:28.999Z,4.80
2018-05-25T05:09:30.288Z,5.20
2018-05-25T05:14:33.080Z,4.93
2018-05-25T05:19:34.380Z,4.73
2018-05-25T05:24:35.679Z,4.80
2018-05-25T05:29:36.979Z,4.30
2018-05-25T05:34:38.312Z,4.50
2018-05-25T05:39:39.616Z,4.20
2018-05-25T05:44:40.922Z,4.03
2018-05-25T05:49:42.218Z,4.60
2018-05-25T05:54:43.508Z,3.90
2018-05-25T05:59:44.804Z,3.33
2018-05-25T06:04:46.132Z,3.33
2018-05-25T06:09:47.428Z,3.30
2018-05-25T06:14:49.462Z,3.47
2018-05-25T06:19:50.755Z,3.40
2018-05-25T06:24:52.091Z,4.10
2018-05-25T06:29:53.389Z,3.70
2018-05-25T06:34:55.436Z,3.70
2018-05-25T06:39:56.753Z,4.00
2018-05-25T06:44:58.051Z,4.10
2018-05-25T06:49:59.387Z,4.57
2018-05-25T06:55:00.686Z,4.63
2018-05-25T07:00:02.003Z,3.87
2018-05-25T07:05:03.345Z,4.00
2018-05-25T07:10:05.399Z,4.20
2018-05-25T07:15:06.699Z,4.30
2018-05-25T07:20:08.737Z,4.07
2018-05-25T07:25:10.054Z,3.90
2018-05-25T07:30:12.080Z,4.17
2018-05-25T07:35:13.391Z,4.03
2018-05-25T07:40:15.729Z,4.60
2018-05-25T07:45:17.030Z,4.27
2018-05-25T07:50:19.085Z,5.43
2018-05-25T07:55:20.367Z,4.80
2018-05-25T08:00:21.708Z,5.00
2018-05-25T08:05:22.965Z,4.20
2018-05-25T08:10:39.183Z,4.13
2018-05-25T08:15:40.480Z,3.70
2018-05-25T08:20:41.835Z,2.87
2018-05-25T08:25:43.140Z,2.20
2018-05-25T08:30:44.451Z,2.73
2018-05-25T08:35:45.763Z,2.60
2018-05-25T08:40:47.084Z,2.50
2018-05-25T08:45:48.440Z,2.80
2018-05-25T08:50:49.755Z,2.83
2018-05-25T08:55:52.037Z,2.53
2018-05-25T09:00:53.406Z,3.07
2018-05-25T09:05:55.441Z,3.30
2018-05-25T09:10:56.749Z,2.87
2018-05-25T09:15:58.811Z,3.83
2018-05-25T09:21:00.135Z,3.10
2018-05-25T09:26:01.443Z,2.63
2018-05-25T09:31:02.760Z,2.80
2018-05-25T09:36:04.079Z,2.87
2018-05-25T09:41:05.371Z,3.63
2018-05-25T09:46:06.691Z,2.70
2018-05-25T09:51:08.768Z,2.73
2018-05-25T09:56:10.145Z,2.40
2018-05-25T10:01:11.418Z,2.50
2018-05-25T10:06:13.483Z,2.30
2018-05-25T10:11:14.780Z,2.90
2018-05-25T10:16:16.099Z,2.73
2018-05-25T10:21:17.404Z,2.43
2018-05-25T10:26:19.496Z,2.50
2018-05-25T10:31:20.833Z,2.60
2018-05-25T10:36:22.131Z,2.50
2018-05-25T10:41:23.450Z,2.30
2018-05-25T10:46:24.739Z,2.20
2018-05-25T10:51:26.940Z,2.20
2018-05-25T10:56:28.300Z,2.37
2018-05-25T11:01:29.572Z,2.30
2018-05-25T11:06:31.612Z,2.10
2018-05-25T11:11:33.686Z,1.90
2018-05-25T11:16:35.015Z,2.00
2018-05-25T11:21:36.304Z,1.95
2018-05-25T11:26:37.641Z,2.07
2018-05-25T11:31:38.937Z,1.40
2018-05-25T11:36:40.260Z,2.00
2018-05-25T11:41:41.559Z,1.80
2018-05-25T11:46:42.866Z,1.87
2018-05-25T11:51:44.923Z,1.52
2018-05-25T11:56:46.967Z,1.95
2018-05-25T12:01:48.320Z,1.30
2018-05-25T12:06:50.348Z,1.45
2018-05-25T12:11:51.644Z,1.58
2018-05-25T12:16:53.687Z,1.30
2018-05-25T12:21:56.481Z,1.80
2018-05-25T12:26:57.801Z,1.70
2018-05-25T12:31:59.112Z,1.50
2018-05-25T12:37:00.446Z,1.90
2018-05-25T12:42:01.798Z,1.60
2018-05-25T12:47:03.095Z,1.52
2018-05-25T12:52:04.411Z,1.50
2018-05-25T12:57:06.454Z,1.70
2018-05-25T13:02:07.784Z,1.70
2018-05-25T13:07:09.083Z,1.73
2018-05-25T13:12:10.397Z,1.50
2018-05-25T13:17:11.715Z,1.60
2018-05-25T13:22:13.024Z,1.40
2018-05-25T13:27:14.352Z,1.40
2018-05-25T13:32:15.678Z,1.40
2018-05-25T13:37:16.973Z,1.65
2018-05-25T13:42:18.293Z,2.10
2018-05-25T13:47:19.626Z,1.60
2018-05-25T13:52:20.945Z,2.05
2018-05-25T13:57:22.268Z,1.80
2018-05-25T14:02:23.597Z,1.92
2018-05-25T14:07:24.911Z,1.70
2018-05-25T14:12:26.234Z,1.45
2018-05-25T14:17:27.519Z,1.70
2018-05-25T14:22:28.875Z,1.92
2018-05-25T14:27:30.942Z,1.62
2018-05-25T14:32:32.247Z,1.55
2018-05-25T14:37:33.575Z,2.00
2018-05-25T14:42:35.635Z,1.70
2018-05-25T14:47:36.959Z,1.60
2018-05-25T14:52:38.281Z,1.80
2018-05-25T14:57:39.567Z,1.80
2018-05-25T15:02:41.642Z,1.75
2018-05-25T15:07:42.952Z,1.58
2018-05-25T15:12:44.287Z,2.00
2018-05-25T15:17:46.349Z,1.90
2018-05-25T15:22:47.679Z,2.00
2018-05-25T15:27:48.976Z,1.90
2018-05-25T15:32:51.052Z,2.05
2018-05-25T15:37:52.351Z,2.00
2018-05-25T15:42:53.616Z,2.37
2018-05-25T15:47:54.887Z,2.63
2018-05-25T15:52:56.187Z,2.30
2018-05-25T15:57:57.519Z,2.10
2018-05-25T16:02:58.823Z,2.17
2018-05-25T16:08:00.128Z,1.87
2018-05-25T16:13:01.401Z,2.00
2018-05-25T16:18:02.691Z,1.83
2018-05-25T16:23:04.719Z,2.13
2018-05-25T16:28:06.004Z,1.90
2018-05-25T16:33:07.269Z,2.20
2018-05-25T16:38:09.275Z,2.10
2018-05-25T16:43:11.273Z,1.75
2018-05-25T16:48:12.539Z,2.23
2018-05-25T16:53:13.788Z,2.50
2018-05-25T16:58:15.098Z,2.37
2018-05-25T17:03:16.347Z,2.30
2018-05-25T17:08:17.607Z,2.10
2018-05-25T17:13:18.857Z,1.77
2018-05-25T17:18:20.154Z,3.03
2018-05-25T17:23:21.411Z,3.07
2018-05-25T17:28:22.712Z,3.07
2018-05-25T17:33:23.967Z,4.43
2018-05-25T17:38:25.270Z,2.53
2018-05-25T17:43:28.067Z,2.30
2018-05-25T17:48:29.333Z,2.67
2018-05-25T17:53:30.647Z,2.80
2018-05-25T17:58:31.911Z,3.30
2018-05-25T18:03:33.168Z,2.67
2018-05-25T18:08:34.434Z,2.60
2018-05-25T18:13:35.699Z,2.70
2018-05-25T18:18:36.983Z,2.73
2018-05-25T18:23:38.261Z,2.60
2018-05-25T18:28:40.274Z,2.40
2018-05-25T18:33:41.544Z,2.30
2018-05-25T18:38:42.800Z,2.20
2018-05-25T18:43:44.085Z,2.50
2018-05-25T18:48:45.336Z,2.60
2018-05-25T18:53:58.927Z,2.33
2018-05-25T18:59:00.202Z,2.77
2018-05-25T19:04:01.483Z,4.07
2018-05-25T19:09:04.490Z,3.40
2018-05-25T19:14:05.759Z,3.20
2018-05-25T19:19:07.028Z,3.07
2018-05-25T19:24:08.303Z,3.30
2018-05-25T19:29:09.595Z,3.00
2018-05-25T19:34:10.843Z,3.00
2018-05-25T19:39:12.114Z,4.43
2018-05-25T19:44:13.383Z,4.13
2018-05-25T19:49:14.663Z,3.73
2018-05-25T19:54:15.936Z,4.10
2018-05-25T19:59:17.203Z,4.30
2018-05-25T20:04:18.503Z,3.40
2018-05-25T20:09:19.827Z,3.57
2018-05-25T20:14:21.115Z,3.50
2018-05-25T20:19:22.464Z,3.60
2018-05-25T20:24:24.483Z,3.77
2018-05-25T20:29:25.772Z,4.03
2018-05-25T20:34:27.028Z,3.83
2018-05-25T20:39:28.285Z,3.50
2018-05-25T20:44:29.607Z,4.10
2018-05-25T20:49:30.987Z,4.50
2018-05-25T20:54:32.255Z,4.63
2018-05-25T20:59:33.527Z,4.63
2018-05-25T21:04:34.795Z,4.47
2018-05-25T21:09:36.112Z,4.80
2018-05-25T21:14:37.379Z,4.63
2018-05-25T21:19:38.665Z,4.40
2018-05-25T21:24:39.986Z,5.23
2018-05-25T21:29:41.216Z,5.00
2018-05-25T21:34:42.484Z,4.67
2018-05-25T21:39:43.765Z,4.63
2018-05-25T21:44:45.045Z,5.13
2018-05-25T21:49:46.321Z,4.47
2018-05-25T21:54:47.576Z,4.60
2018-05-25T21:59:49.581Z,4.83
2018-05-25T22:04:51.577Z,5.37
2018-05-25T22:09:52.859Z,5.17
2018-05-25T22:14:54.133Z,5.50
2018-05-25T22:19:55.396Z,5.33
2018-05-25T22:24:56.659Z,5.53
2018-05-25T22:29:58.707Z,5.53
2018-05-25T22:34:59.963Z,5.83
2018-05-25T22:40:02.002Z,5.60
2018-05-25T22:45:15.688Z,5.13
2018-05-25T22:50:35.614Z,5.77
2018-05-25T22:55:43.144Z,6.00
2018-05-25T23:00:45.203Z,6.43
2018-05-25T23:05:46.530Z,5.90
2018-05-25T23:10:47.828Z,6.40
2018-05-25T23:15:49.200Z,6.53
2018-05-25T23:20:50.484Z,7.63
2018-05-25T23:25:51.797Z,7.10
2018-05-25T23:30:53.112Z,6.93
2018-05-25T23:35:54.413Z,6.37
2018-05-25T23:40:56.458Z,6.63
2018-05-25T23:45:57.762Z,6.67
2018-05-25T23:50:59.085Z,6.60
2018-05-25T23:56:00.380Z,7.27
